Time;durP1;ratioP1;P1;durP2;ratioP2;P2;SDS_P1;SDS_P2;PMS_P1;PMS_P2;Temp;Humidity;BMP_temperature;BMP_pressure;BME280_temperature;BME280_humidity;BME280_pressure;Samples;Min_cycle;Max_cycle;Signal;HPM_P1;HPM_P2
2022/12/01 00:01:08;;;;;;;121.10;43.53;;;;;;;;;;5079058;28;20876;-80
2022/12/01 00:03:34;;;;;;;95.80;41.17;;;;;;;;;;5078812;28;20427;-80
2022/12/01 00:06:01;;;;;;;109.38;42.20;;;;;;;;;;5073283;28;20432;-80
2022/12/01 00:08:27;;;;;;;100.00;40.28;;;;;;;;;;5076339;28;20439;-79
2022/12/01 00:10:53;;;;;;;99.50;42.07;;;;;;;;;;5072698;28;20418;-78
2022/12/01 00:13:20;;;;;;;102.18;40.25;;;;;;;;;;5078733;28;20501;-78
2022/12/01 00:15:48;;;;;;;101.88;41.53;;;;;;;;;;5082651;28;20785;-78
2022/12/01 00:18:14;;;;;;;105.00;41.83;;;;;;;;;;5079150;28;20433;-79
2022/12/01 00:20:40;;;;;;;98.78;42.55;;;;;;;;;;5077941;28;20428;-79
2022/12/01 00:23:07;;;;;;;101.85;40.88;;;;;;;;;;5078054;28;20426;-80
2022/12/01 00:25:33;;;;;;;103.80;42.33;;;;;;;;;;5058265;28;20424;-80
2022/12/01 00:28:00;;;;;;;101.65;41.80;;;;;;;;;;5079679;28;20450;-80
2022/12/01 00:30:26;;;;;;;106.85;41.55;;;;;;;;;;5076435;28;20473;-78
2022/12/01 00:32:54;;;;;;;107.40;42.33;;;;;;;;;;5080905;28;20918;-79
2022/12/01 00:35:22;;;;;;;91.38;39.30;;;;;;;;;;5076458;28;20449;-81
2022/12/01 00:37:48;;;;;;;95.05;40.30;;;;;;;;;;5071573;28;20451;-79
2022/12/01 00:40:15;;;;;;;109.15;42.30;;;;;;;;;;5057801;28;20429;-80
2022/12/01 00:42:41;;;;;;;103.22;42.50;;;;;;;;;;5078632;28;20410;-80
2022/12/01 00:45:09;;;;;;;94.93;39.95;;;;;;;;;;5077319;28;20420;-78
2022/12/01 00:47:36;;;;;;;92.18;38.97;;;;;;;;;;5075297;28;20423;-77
2022/12/01 00:50:04;;;;;;;93.70;39.75;;;;;;;;;;5076680;28;20921;-78
2022/12/01 00:52:31;;;;;;;105.23;40.50;;;;;;;;;;5069169;28;20457;-79
2022/12/01 00:54:57;;;;;;;101.40;40.17;;;;;;;;;;5066412;28;20430;-78
2022/12/01 00:57:24;;;;;;;101.80;43.78;;;;;;;;;;5076652;28;20925;-78
2022/12/01 00:59:50;;;;;;;108.28;41.15;;;;;;;;;;5074639;28;20417;-78
2022/12/01 01:02:17;;;;;;;111.65;42.05;;;;;;;;;;5083076;28;20420;-78
2022/12/01 01:04:43;;;;;;;99.32;40.35;;;;;;;;;;5079292;28;20416;-79
2022/12/01 01:07:11;;;;;;;92.60;38.10;;;;;;;;;;5059291;28;20934;-78
2022/12/01 01:09:37;;;;;;;97.40;40.10;;;;;;;;;;5071718;28;20424;-78
2022/12/01 01:12:04;;;;;;;110.35;41.08;;;;;;;;;;5075192;28;20945;-78
2022/12/01 01:14:30;;;;;;;109.90;41.05;;;;;;;;;;5072994;28;20402;-78
2022/12/01 01:16:57;;;;;;;95.75;39.63;;;;;;;;;;5082865;28;20412;-79
2022/12/01 01:19:23;;;;;;;92.72;40.75;;;;;;;;;;5078390;28;20429;-78
2022/12/01 01:21:50;;;;;;;99.15;37.58;;;;;;;;;;5079220;28;20425;-79
2022/12/01 01:24:20;;;;;;;100.50;39.60;;;;;;;;;;5075724;28;20817;-78
2022/12/01 01:26:46;;;;;;;101.30;40.97;;;;;;;;;;5077554;28;20434;-78
2022/12/01 01:29:13;;;;;;;108.45;38.70;;;;;;;;;;5076155;28;20406;-78
2022/12/01 01:31:39;;;;;;;98.50;40.30;;;;;;;;;;5075250;28;20423;-79
2022/12/01 01:34:05;;;;;;;96.70;41.30;;;;;;;;;;5077065;28;20778;-78
2022/12/01 01:36:32;;;;;;;89.50;39.20;;;;;;;;;;5078071;28;20450;-79
2022/12/01 01:38:59;;;;;;;88.43;38.63;;;;;;;;;;5078311;28;20425;-79
2022/12/01 01:41:27;;;;;;;93.05;39.08;;;;;;;;;;5075955;28;20440;-79
2022/12/01 01:43:56;;;;;;;94.43;39.15;;;;;;;;;;5079169;28;20432;-79
2022/12/01 01:46:23;;;;;;;96.57;38.60;;;;;;;;;;5075499;28;20424;-78
2022/12/01 01:48:52;;;;;;;89.15;39.00;;;;;;;;;;5076494;28;20431;-79
2022/12/01 01:51:22;;;;;;;86.93;36.90;;;;;;;;;;5086265;28;20425;-78
2022/12/01 01:53:49;;;;;;;88.00;37.20;;;;;;;;;;5075097;28;20433;-78
2022/12/01 01:56:15;;;;;;;86.60;37.50;;;;;;;;;;5080249;28;20619;-79
2022/12/01 01:58:43;;;;;;;79.68;36.53;;;;;;;;;;5080641;28;20449;-79
2022/12/01 02:01:10;;;;;;;84.68;36.10;;;;;;;;;;5075763;28;20918;-78
2022/12/01 02:03:37;;;;;;;79.13;35.35;;;;;;;;;;5079280;28;20910;-79
2022/12/01 02:06:04;;;;;;;82.60;35.88;;;;;;;;;;5078325;28;20422;-78
2022/12/01 02:08:33;;;;;;;81.45;35.10;;;;;;;;;;5078000;28;20429;-78
2022/12/01 02:11:06;;;;;;;80.25;35.70;;;;;;;;;;5077014;28;20420;-78
2022/12/01 02:13:34;;;;;;;77.93;33.63;;;;;;;;;;5078602;28;20433;-77
2022/12/01 02:16:06;;;;;;;81.10;35.03;;;;;;;;;;5058886;28;20416;-78
2022/12/01 02:18:37;;;;;;;79.93;34.70;;;;;;;;;;5080658;28;20441;-79
2022/12/01 02:21:24;;;;;;;79.00;34.03;;;;;;;;;;5077370;28;20425;-79
2022/12/01 02:24:03;;;;;;;98.65;39.58;;;;;;;;;;5069481;28;20428;-78
2022/12/01 02:26:50;;;;;;;94.63;38.63;;;;;;;;;;5079821;28;20429;-79
2022/12/01 02:29:33;;;;;;;106.50;42.15;;;;;;;;;;5069754;28;20481;-80
2022/12/01 02:32:07;;;;;;;101.05;42.03;;;;;;;;;;5077365;28;20919;-78
2022/12/01 02:34:38;;;;;;;105.13;43.80;;;;;;;;;;5081135;28;20499;-79
2022/12/01 02:37:08;;;;;;;109.38;43.83;;;;;;;;;;5066865;28;20449;-78
2022/12/01 02:39:38;;;;;;;112.25;45.90;;;;;;;;;;5082616;28;20418;-78
2022/12/01 02:42:06;;;;;;;117.80;46.72;;;;;;;;;;5082785;28;20490;-79
2022/12/01 02:44:34;;;;;;;116.20;48.72;;;;;;;;;;5088812;28;20937;-79
2022/12/01 02:47:04;;;;;;;130.00;49.83;;;;;;;;;;5084301;28;20422;-79
2022/12/01 02:49:33;;;;;;;121.22;46.35;;;;;;;;;;5087767;28;20417;-79
2022/12/01 02:52:00;;;;;;;127.85;50.40;;;;;;;;;;5085080;28;20429;-79
2022/12/01 02:54:30;;;;;;;122.83;47.83;;;;;;;;;;5085825;28;20470;-80
2022/12/01 02:56:57;;;;;;;123.00;49.00;;;;;;;;;;5083938;28;20426;-79
2022/12/01 02:59:23;;;;;;;128.03;51.43;;;;;;;;;;5082930;28;20412;-80
2022/12/01 03:01:58;;;;;;;115.22;48.25;;;;;;;;;;5080546;28;20410;-77
2022/12/01 03:04:32;;;;;;;122.63;49.73;;;;;;;;;;5054577;28;20418;-78
2022/12/01 03:07:03;;;;;;;117.47;50.70;;;;;;;;;;5078228;28;20428;-79
2022/12/01 03:09:33;;;;;;;114.53;48.67;;;;;;;;;;5071259;28;20789;-78
2022/12/01 03:12:08;;;;;;;117.78;50.33;;;;;;;;;;5074603;28;20428;-78
2022/12/01 03:14:38;;;;;;;112.10;48.10;;;;;;;;;;5080915;28;20436;-78
2022/12/01 03:17:05;;;;;;;121.10;49.92;;;;;;;;;;5078036;28;20429;-79
2022/12/01 03:19:36;;;;;;;136.13;52.70;;;;;;;;;;5073184;28;20426;-78
2022/12/01 03:22:05;;;;;;;132.38;52.70;;;;;;;;;;5079236;28;20448;-79
2022/12/01 03:24:32;;;;;;;123.03;52.45;;;;;;;;;;5077843;28;20410;-78
2022/12/01 03:27:00;;;;;;;123.93;49.50;;;;;;;;;;5077649;28;20834;-79
2022/12/01 03:29:28;;;;;;;125.05;52.25;;;;;;;;;;5077845;28;20920;-78
2022/12/01 03:31:57;;;;;;;120.47;48.70;;;;;;;;;;5078954;28;20427;-78
2022/12/01 03:34:27;;;;;;;130.23;51.35;;;;;;;;;;5085368;28;20414;-79
2022/12/01 03:36:56;;;;;;;125.03;51.57;;;;;;;;;;5080747;28;20427;-79
2022/12/01 03:39:25;;;;;;;123.00;50.58;;;;;;;;;;5082368;28;20433;-79
2022/12/01 03:41:53;;;;;;;126.30;52.28;;;;;;;;;;5080367;28;20417;-78
2022/12/01 03:44:21;;;;;;;120.63;51.85;;;;;;;;;;5080778;28;20427;-79
2022/12/01 03:46:49;;;;;;;119.47;48.25;;;;;;;;;;5081161;28;20496;-78
2022/12/01 03:49:17;;;;;;;119.03;49.67;;;;;;;;;;5076709;28;20411;-79
2022/12/01 03:51:48;;;;;;;121.80;50.63;;;;;;;;;;5055977;28;20785;-78
2022/12/01 03:54:19;;;;;;;121.30;51.15;;;;;;;;;;5083650;28;20410;-79
2022/12/01 03:56:48;;;;;;;120.22;51.47;;;;;;;;;;5080425;28;20898;-78
2022/12/01 03:59:16;;;;;;;122.90;52.85;;;;;;;;;;5079461;28;20414;-79
2022/12/01 04:01:42;;;;;;;110.95;50.20;;;;;;;;;;5080086;28;20419;-79
2022/12/01 04:04:11;;;;;;;116.38;49.42;;;;;;;;;;5083843;28;20907;-78
2022/12/01 04:06:39;;;;;;;120.60;49.97;;;;;;;;;;5080315;28;20428;-79
2022/12/01 04:09:05;;;;;;;118.32;51.40;;;;;;;;;;5072803;28;20419;-79
2022/12/01 04:14:17;;;;;;;120.85;51.83;;;;;;;;;;5078850;28;20405;-78
2022/12/01 04:16:44;;;;;;;115.93;51.07;;;;;;;;;;5073618;28;20435;-79
2022/12/01 04:19:10;;;;;;;128.50;53.40;;;;;;;;;;5069705;28;20414;-78
2022/12/01 04:21:37;;;;;;;122.35;51.22;;;;;;;;;;5079442;28;20426;-78
2022/12/01 04:24:03;;;;;;;120.65;51.95;;;;;;;;;;5074629;28;20412;-78
2022/12/01 04:26:31;;;;;;;127.95;52.50;;;;;;;;;;5075143;28;20429;-77
2022/12/01 04:28:59;;;;;;;117.55;50.83;;;;;;;;;;5062946;28;20940;-79
2022/12/01 04:31:26;;;;;;;128.32;51.33;;;;;;;;;;5080935;28;20909;-79
2022/12/01 04:33:54;;;;;;;137.13;54.40;;;;;;;;;;5074527;28;20428;-78
2022/12/01 04:36:20;;;;;;;138.70;54.90;;;;;;;;;;5075208;28;20428;-78
2022/12/01 04:38:47;;;;;;;132.68;52.38;;;;;;;;;;5079012;28;20944;-78
2022/12/01 04:41:14;;;;;;;135.60;54.45;;;;;;;;;;5082454;28;20429;-79
2022/12/01 04:43:42;;;;;;;134.95;55.30;;;;;;;;;;5057821;28;20442;-79
2022/12/01 04:46:10;;;;;;;141.43;56.45;;;;;;;;;;5072654;28;20430;-79
2022/12/01 04:48:36;;;;;;;169.80;59.17;;;;;;;;;;5075083;28;20427;-78
2022/12/01 04:51:03;;;;;;;148.73;57.22;;;;;;;;;;5077331;28;20954;-79
2022/12/01 04:53:30;;;;;;;145.70;56.75;;;;;;;;;;5075105;28;20427;-78
2022/12/01 04:55:56;;;;;;;152.73;58.10;;;;;;;;;;5077324;28;20518;-79
2022/12/01 04:58:22;;;;;;;154.35;55.08;;;;;;;;;;5078657;28;20432;-80
2022/12/01 05:00:50;;;;;;;145.47;56.83;;;;;;;;;;5076956;28;20417;-80
2022/12/01 05:03:19;;;;;;;151.65;55.78;;;;;;;;;;5082344;28;20944;-80
2022/12/01 05:05:46;;;;;;;138.97;55.27;;;;;;;;;;5084073;28;20418;-80
2022/12/01 05:08:13;;;;;;;138.82;56.88;;;;;;;;;;5084136;28;20441;-80
2022/12/01 05:10:39;;;;;;;137.95;55.40;;;;;;;;;;5072617;28;20520;-80
2022/12/01 05:13:06;;;;;;;154.67;57.83;;;;;;;;;;5072578;28;20505;-77
2022/12/01 05:15:32;;;;;;;141.65;53.42;;;;;;;;;;5071823;28;20420;-78
2022/12/01 05:17:59;;;;;;;131.50;54.03;;;;;;;;;;5056094;28;20435;-79
2022/12/01 05:23:16;;;;;;;124.97;53.03;;;;;;;;;;5063633;28;20912;-77
2022/12/01 05:25:42;;;;;;;128.35;52.92;;;;;;;;;;5080010;28;20413;-78
2022/12/01 05:28:09;;;;;;;131.88;54.92;;;;;;;;;;5079447;28;20452;-80
2022/12/01 05:30:35;;;;;;;124.18;52.47;;;;;;;;;;5061305;28;20423;-79
2022/12/01 05:33:02;;;;;;;126.20;52.67;;;;;;;;;;5078655;28;20431;-80
2022/12/01 05:35:29;;;;;;;130.30;52.97;;;;;;;;;;5078295;28;20481;-79
2022/12/01 05:37:56;;;;;;;132.75;54.72;;;;;;;;;;5078562;28;20434;-80
2022/12/01 05:40:22;;;;;;;120.43;54.77;;;;;;;;;;5072689;28;20422;-80
2022/12/01 05:42:50;;;;;;;123.18;52.55;;;;;;;;;;5079628;28;20427;-79
2022/12/01 05:45:16;;;;;;;130.00;54.53;;;;;;;;;;5076748;28;20429;-79
2022/12/01 05:47:42;;;;;;;128.07;53.90;;;;;;;;;;5080852;28;20429;-80
2022/12/01 05:50:10;;;;;;;120.32;53.75;;;;;;;;;;5080470;28;20429;-79
2022/12/01 05:52:37;;;;;;;124.30;55.40;;;;;;;;;;5075514;28;20438;-79
2022/12/01 05:55:05;;;;;;;125.47;53.70;;;;;;;;;;5082729;28;20442;-79
2022/12/01 05:57:32;;;;;;;130.25;57.25;;;;;;;;;;5080364;28;20427;-80
2022/12/01 05:59:58;;;;;;;124.82;54.08;;;;;;;;;;5078798;28;21022;-80
2022/12/01 06:02:25;;;;;;;139.85;59.28;;;;;;;;;;5078105;28;20430;-79
2022/12/01 06:04:52;;;;;;;128.77;58.78;;;;;;;;;;5080508;28;20418;-79
2022/12/01 06:07:19;;;;;;;131.35;55.70;;;;;;;;;;5083596;28;20422;-79
2022/12/01 06:09:46;;;;;;;141.07;63.03;;;;;;;;;;5085457;28;20537;-79
2022/12/01 06:12:13;;;;;;;141.85;60.58;;;;;;;;;;5086068;28;20425;-79
2022/12/01 06:14:39;;;;;;;128.95;59.50;;;;;;;;;;5077869;28;20789;-80
2022/12/01 06:17:06;;;;;;;144.18;63.72;;;;;;;;;;5079600;28;20425;-79
2022/12/01 06:19:34;;;;;;;150.82;63.67;;;;;;;;;;5075945;28;20439;-79
2022/12/01 06:22:01;;;;;;;138.55;61.13;;;;;;;;;;5074295;28;20936;-78
2022/12/01 06:24:27;;;;;;;151.77;63.47;;;;;;;;;;5083445;28;20420;-78
2022/12/01 06:26:59;;;;;;;141.50;62.20;;;;;;;;;;5073847;28;20423;-79
2022/12/01 06:29:25;;;;;;;137.02;63.42;;;;;;;;;;5070235;28;20421;-79
2022/12/01 06:31:51;;;;;;;146.77;68.25;;;;;;;;;;5079136;28;20429;-78
2022/12/01 06:34:18;;;;;;;143.90;65.45;;;;;;;;;;5074421;28;20419;-78
2022/12/01 06:36:46;;;;;;;147.27;66.80;;;;;;;;;;5076793;28;20422;-79
2022/12/01 06:39:15;;;;;;;139.95;64.60;;;;;;;;;;5084280;28;20420;-79
2022/12/01 06:41:42;;;;;;;135.52;65.93;;;;;;;;;;5081611;28;20815;-77
2022/12/01 06:44:10;;;;;;;143.15;66.88;;;;;;;;;;5077275;28;20913;-78
2022/12/01 06:46:37;;;;;;;141.45;63.53;;;;;;;;;;5079536;28;20438;-79
2022/12/01 06:49:03;;;;;;;139.32;65.93;;;;;;;;;;5080758;28;20482;-77
2022/12/01 06:51:32;;;;;;;143.18;65.63;;;;;;;;;;5086864;28;20405;-78
2022/12/01 06:53:59;;;;;;;145.00;64.32;;;;;;;;;;5080200;28;20776;-78
2022/12/01 06:56:25;;;;;;;131.43;63.70;;;;;;;;;;5087472;28;20421;-78
2022/12/01 06:58:52;;;;;;;137.95;65.28;;;;;;;;;;5066273;28;20409;-78
2022/12/01 07:01:20;;;;;;;135.30;63.67;;;;;;;;;;5081623;28;20793;-78
2022/12/01 07:03:47;;;;;;;149.60;66.03;;;;;;;;;;5081690;28;20929;-77
2022/12/01 07:06:13;;;;;;;134.88;64.60;;;;;;;;;;5085384;28;20418;-77
2022/12/01 07:08:40;;;;;;;138.52;67.03;;;;;;;;;;5080061;28;20421;-78
2022/12/01 07:11:07;;;;;;;135.48;66.22;;;;;;;;;;5083031;28;20425;-78
2022/12/01 07:13:33;;;;;;;136.73;65.80;;;;;;;;;;5087406;28;20948;-78
2022/12/01 07:16:00;;;;;;;140.38;67.38;;;;;;;;;;5078835;28;20445;-78
2022/12/01 07:18:28;;;;;;;140.23;66.78;;;;;;;;;;5080323;28;20428;-79
2022/12/01 07:20:58;;;;;;;139.13;69.30;;;;;;;;;;5088841;28;20814;-79
2022/12/01 07:23:25;;;;;;;135.65;66.97;;;;;;;;;;5081691;28;20439;-80
2022/12/01 07:25:58;;;;;;;137.35;66.07;;;;;;;;;;5079899;28;20490;-78
2022/12/01 07:28:25;;;;;;;135.55;65.90;;;;;;;;;;5080016;28;20408;-79
2022/12/01 07:30:51;;;;;;;130.45;66.32;;;;;;;;;;5077597;28;20417;-77
2022/12/01 07:33:17;;;;;;;131.38;66.15;;;;;;;;;;5079003;28;20436;-77
2022/12/01 07:35:45;;;;;;;138.73;67.13;;;;;;;;;;5082832;28;20450;-79
2022/12/01 07:38:11;;;;;;;133.87;66.70;;;;;;;;;;5078003;28;20448;-78
2022/12/01 07:40:38;;;;;;;127.63;66.03;;;;;;;;;;5080912;28;20413;-77
2022/12/01 07:43:04;;;;;;;130.82;66.95;;;;;;;;;;5080182;28;20402;-78
2022/12/01 07:45:31;;;;;;;141.20;70.05;;;;;;;;;;5081255;28;20782;-78
2022/12/01 07:47:57;;;;;;;143.48;68.35;;;;;;;;;;5077100;28;20421;-78
2022/12/01 07:50:23;;;;;;;144.90;69.45;;;;;;;;;;5086274;28;20936;-78
2022/12/01 07:52:51;;;;;;;139.63;66.93;;;;;;;;;;5078932;28;20787;-78
2022/12/01 07:55:17;;;;;;;131.63;67.18;;;;;;;;;;5079980;28;20421;-78
2022/12/01 07:57:44;;;;;;;142.17;68.83;;;;;;;;;;5078513;28;20416;-77
2022/12/01 08:00:11;;;;;;;142.82;69.50;;;;;;;;;;5080423;28;20427;-78
2022/12/01 08:02:37;;;;;;;139.27;69.75;;;;;;;;;;5081444;28;20932;-78
2022/12/01 08:05:03;;;;;;;131.32;67.10;;;;;;;;;;5079137;28;20423;-77
2022/12/01 08:07:30;;;;;;;138.60;67.17;;;;;;;;;;5080772;28;20417;-80
2022/12/01 08:09:59;;;;;;;130.98;66.25;;;;;;;;;;5078740;28;20431;-80
2022/12/01 08:12:25;;;;;;;131.25;65.28;;;;;;;;;;5075092;28;20428;-79
2022/12/01 08:14:51;;;;;;;129.10;64.65;;;;;;;;;;5085192;28;20414;-79
2022/12/01 08:17:18;;;;;;;130.80;63.83;;;;;;;;;;5082165;28;20919;-78
2022/12/01 08:19:44;;;;;;;133.10;65.90;;;;;;;;;;5082978;28;20873;-79
2022/12/01 08:22:10;;;;;;;118.47;62.07;;;;;;;;;;5080900;28;20433;-79
2022/12/01 08:24:37;;;;;;;123.43;65.18;;;;;;;;;;5077853;28;20415;-79
2022/12/01 08:27:04;;;;;;;113.57;61.63;;;;;;;;;;5079783;28;20407;-79
2022/12/01 08:29:31;;;;;;;125.28;63.40;;;;;;;;;;5085956;28;20420;-79
2022/12/01 08:31:57;;;;;;;122.90;63.65;;;;;;;;;;5081577;28;20419;-78
2022/12/01 08:34:24;;;;;;;118.97;60.00;;;;;;;;;;5079301;28;20944;-78
2022/12/01 08:36:50;;;;;;;122.10;61.85;;;;;;;;;;5083607;28;20414;-77
2022/12/01 08:39:16;;;;;;;128.02;66.55;;;;;;;;;;5082611;28;20930;-78
2022/12/01 08:41:43;;;;;;;128.15;62.22;;;;;;;;;;5081294;28;20419;-77
2022/12/01 08:44:11;;;;;;;116.55;59.83;;;;;;;;;;5081762;28;20418;-79
2022/12/01 08:46:37;;;;;;;110.80;59.90;;;;;;;;;;5074629;28;20432;-79
2022/12/01 08:49:04;;;;;;;115.43;57.75;;;;;;;;;;5080005;28;20413;-79
2022/12/01 08:51:31;;;;;;;106.73;58.07;;;;;;;;;;5081314;28;20442;-80
2022/12/01 08:53:58;;;;;;;102.88;56.92;;;;;;;;;;5078801;28;20433;-79
2022/12/01 08:56:25;;;;;;;101.10;57.85;;;;;;;;;;5081258;28;20421;-77
2022/12/01 08:58:53;;;;;;;105.67;57.30;;;;;;;;;;5078489;28;20419;-78
2022/12/01 09:01:21;;;;;;;107.75;58.17;;;;;;;;;;5085802;28;20425;-77
2022/12/01 09:03:47;;;;;;;119.60;60.63;;;;;;;;;;5077373;28;20412;-77
2022/12/01 09:06:15;;;;;;;113.97;59.70;;;;;;;;;;5081995;28;20412;-80
2022/12/01 09:08:41;;;;;;;106.75;59.53;;;;;;;;;;5078810;28;20405;-79
2022/12/01 09:11:09;;;;;;;114.28;59.78;;;;;;;;;;5063628;28;20914;-79
2022/12/01 09:13:36;;;;;;;113.53;60.95;;;;;;;;;;5081745;28;20437;-80
2022/12/01 09:16:04;;;;;;;115.15;61.72;;;;;;;;;;5082980;28;20406;-81
2022/12/01 09:18:32;;;;;;;115.07;59.47;;;;;;;;;;5081472;28;20410;-80
2022/12/01 09:20:59;;;;;;;123.10;61.55;;;;;;;;;;5078891;28;20784;-80
2022/12/01 09:23:25;;;;;;;114.22;60.00;;;;;;;;;;5079203;28;20786;-79
2022/12/01 09:25:54;;;;;;;114.47;59.45;;;;;;;;;;5077771;28;20416;-80
2022/12/01 09:28:22;;;;;;;119.63;63.10;;;;;;;;;;5084624;28;20413;-80
2022/12/01 09:30:49;;;;;;;113.90;59.83;;;;;;;;;;5077687;28;20415;-81
2022/12/01 09:33:16;;;;;;;115.40;59.08;;;;;;;;;;5082838;28;20427;-80
2022/12/01 09:35:44;;;;;;;112.47;58.85;;;;;;;;;;5081215;28;20782;-81
2022/12/01 09:38:10;;;;;;;110.35;57.97;;;;;;;;;;5081975;28;20414;-79
2022/12/01 09:40:38;;;;;;;107.90;58.93;;;;;;;;;;5076297;28;20420;-79
2022/12/01 09:43:05;;;;;;;108.80;56.92;;;;;;;;;;5076247;28;20457;-80
2022/12/01 09:45:34;;;;;;;110.30;58.72;;;;;;;;;;5076445;28;20418;-80
2022/12/01 09:48:02;;;;;;;100.33;54.90;;;;;;;;;;5078198;28;20803;-80
2022/12/01 09:50:30;;;;;;;98.57;54.45;;;;;;;;;;5082274;28;20412;-79
2022/12/01 09:53:00;;;;;;;96.53;53.72;;;;;;;;;;5077277;28;20419;-79
2022/12/01 09:55:28;;;;;;;102.75;55.50;;;;;;;;;;5076759;28;20427;-79
2022/12/01 09:57:55;;;;;;;104.07;55.45;;;;;;;;;;5082115;28;20438;-79
2022/12/01 10:00:23;;;;;;;100.10;53.57;;;;;;;;;;5078159;28;20488;-79
2022/12/01 10:02:52;;;;;;;99.47;53.15;;;;;;;;;;5078007;28;20426;-79
2022/12/01 10:05:21;;;;;;;99.65;54.72;;;;;;;;;;5078008;28;21120;-79
2022/12/01 10:07:50;;;;;;;101.95;54.75;;;;;;;;;;5058971;28;20427;-79
2022/12/01 10:10:24;;;;;;;108.85;57.22;;;;;;;;;;5080151;28;20824;-80
2022/12/01 10:12:50;;;;;;;101.72;54.47;;;;;;;;;;5076869;28;20435;-80
2022/12/01 10:15:26;;;;;;;96.75;52.03;;;;;;;;;;5082505;28;20414;-80
2022/12/01 10:18:01;;;;;;;101.53;54.72;;;;;;;;;;5082618;28;20430;-79
2022/12/01 10:20:31;;;;;;;96.13;51.60;;;;;;;;;;5084718;28;20415;-79
2022/12/01 10:23:07;;;;;;;96.03;52.83;;;;;;;;;;5082834;28;20422;-79
2022/12/01 10:25:40;;;;;;;95.30;52.73;;;;;;;;;;5083945;28;20508;-81
2022/12/01 10:28:17;;;;;;;97.60;52.95;;;;;;;;;;5084554;28;20407;-80
2022/12/01 10:30:51;;;;;;;94.75;51.53;;;;;;;;;;5079861;28;20503;-80
2022/12/01 10:33:23;;;;;;;96.57;51.57;;;;;;;;;;5087314;28;20469;-80
2022/12/01 10:35:51;;;;;;;92.55;51.72;;;;;;;;;;5083323;28;20451;-80
2022/12/01 10:38:22;;;;;;;94.03;52.13;;;;;;;;;;5067435;28;20416;-80
2022/12/01 10:40:52;;;;;;;98.38;53.00;;;;;;;;;;5086431;28;20418;-80
2022/12/01 10:43:18;;;;;;;95.90;52.38;;;;;;;;;;5084574;28;20417;-80
2022/12/01 10:45:45;;;;;;;101.22;54.10;;;;;;;;;;5083990;28;20412;-79
2022/12/01 10:48:14;;;;;;;100.15;52.05;;;;;;;;;;5075853;28;20419;-79
2022/12/01 10:50:41;;;;;;;91.30;52.42;;;;;;;;;;5048975;28;20870;-79
2022/12/01 10:53:19;;;;;;;91.50;50.75;;;;;;;;;;5072875;28;20954;-79
2022/12/01 10:55:49;;;;;;;96.15;53.83;;;;;;;;;;5064934;28;20421;-80
2022/12/01 10:58:18;;;;;;;92.17;51.17;;;;;;;;;;5082991;28;20499;-79
2022/12/01 11:00:54;;;;;;;89.03;50.33;;;;;;;;;;5076279;28;20474;-80
2022/12/01 11:03:22;;;;;;;88.78;49.65;;;;;;;;;;5081382;28;20770;-80
2022/12/01 11:05:52;;;;;;;96.18;51.28;;;;;;;;;;5082420;28;20416;-79
2022/12/01 11:08:21;;;;;;;86.57;48.45;;;;;;;;;;5083662;28;20419;-79
2022/12/01 11:10:48;;;;;;;89.70;48.05;;;;;;;;;;5080517;28;20438;-79
2022/12/01 11:13:19;;;;;;;89.85;49.25;;;;;;;;;;5079473;28;20427;-80
2022/12/01 11:15:50;;;;;;;93.32;51.53;;;;;;;;;;5079835;28;20422;-78
2022/12/01 11:18:20;;;;;;;94.85;50.95;;;;;;;;;;5082994;28;20438;-79
2022/12/01 11:20:47;;;;;;;89.50;48.93;;;;;;;;;;5083672;28;20430;-78
2022/12/01 11:23:24;;;;;;;88.45;49.22;;;;;;;;;;5064628;28;20418;-78
2022/12/01 11:26:01;;;;;;;87.47;49.40;;;;;;;;;;5087222;28;20409;-79
2022/12/01 11:28:29;;;;;;;82.45;48.33;;;;;;;;;;5081488;28;20414;-79
2022/12/01 11:30:56;;;;;;;91.33;48.30;;;;;;;;;;5085501;28;20417;-78
2022/12/01 11:33:23;;;;;;;91.50;49.80;;;;;;;;;;5069244;28;20412;-79
2022/12/01 11:35:50;;;;;;;84.28;48.67;;;;;;;;;;5082999;28;20417;-80
2022/12/01 11:38:20;;;;;;;87.37;45.20;;;;;;;;;;5082026;28;20423;-81
2022/12/01 11:40:48;;;;;;;79.60;44.13;;;;;;;;;;5081571;28;20420;-78
2022/12/01 11:43:22;;;;;;;83.45;43.97;;;;;;;;;;5082765;28;20912;-78
2022/12/01 11:45:50;;;;;;;92.43;47.22;;;;;;;;;;5084192;28;20406;-79
2022/12/01 11:48:23;;;;;;;84.30;46.53;;;;;;;;;;5086924;28;20791;-81
2022/12/01 11:51:00;;;;;;;79.47;44.53;;;;;;;;;;5073222;28;20419;-79
2022/12/01 11:53:27;;;;;;;87.53;46.97;;;;;;;;;;5082129;28;20772;-79
2022/12/01 11:56:12;;;;;;;90.68;48.15;;;;;;;;;;5080857;28;20421;-79
2022/12/01 11:58:39;;;;;;;86.53;47.67;;;;;;;;;;5079204;28;20498;-78
2022/12/01 12:01:11;;;;;;;85.97;46.42;;;;;;;;;;5076687;28;20433;-78
2022/12/01 12:03:40;;;;;;;94.68;48.88;;;;;;;;;;5077596;28;20937;-77
2022/12/01 12:06:13;;;;;;;88.60;48.60;;;;;;;;;;5078765;28;20408;-79
2022/12/01 12:08:46;;;;;;;87.43;48.97;;;;;;;;;;5079400;28;20439;-80
2022/12/01 12:11:15;;;;;;;85.68;48.33;;;;;;;;;;5081176;28;20928;-78
2022/12/01 12:13:58;;;;;;;82.38;44.05;;;;;;;;;;5084567;28;20438;-78
2022/12/01 12:16:30;;;;;;;94.72;46.92;;;;;;;;;;5078297;28;20431;-78
2022/12/01 12:19:05;;;;;;;93.03;48.10;;;;;;;;;;5082026;28;20429;-78
2022/12/01 12:21:33;;;;;;;94.13;50.42;;;;;;;;;;5075980;28;20415;-78
2022/12/01 12:24:07;;;;;;;86.55;47.72;;;;;;;;;;5075406;28;20434;-78
2022/12/01 12:26:36;;;;;;;90.80;48.80;;;;;;;;;;5082399;28;20416;-78
2022/12/01 12:29:11;;;;;;;89.97;48.10;;;;;;;;;;5084823;28;20406;-78
2022/12/01 12:31:44;;;;;;;89.32;48.00;;;;;;;;;;5078692;28;20435;-78
2022/12/01 12:34:32;;;;;;;88.47;47.65;;;;;;;;;;5083109;28;20801;-79
2022/12/01 12:37:06;;;;;;;88.78;46.15;;;;;;;;;;5078472;28;20959;-78
2022/12/01 12:39:50;;;;;;;86.40;46.05;;;;;;;;;;5080113;28;20418;-78
2022/12/01 12:42:19;;;;;;;89.25;47.20;;;;;;;;;;5078616;28;20410;-79
2022/12/01 12:44:48;;;;;;;88.50;47.42;;;;;;;;;;5078402;28;20907;-77
2022/12/01 12:47:29;;;;;;;92.17;48.70;;;;;;;;;;5081065;28;20448;-79
2022/12/01 12:50:01;;;;;;;86.53;45.35;;;;;;;;;;5075855;28;20418;-79
2022/12/01 12:52:29;;;;;;;90.57;46.95;;;;;;;;;;5082813;28;20434;-80
2022/12/01 12:54:57;;;;;;;83.15;45.90;;;;;;;;;;5089070;28;20422;-81
2022/12/01 12:57:27;;;;;;;84.65;46.75;;;;;;;;;;5082485;28;20409;-80
2022/12/01 12:59:56;;;;;;;84.90;44.03;;;;;;;;;;5081756;28;20419;-79
2022/12/01 13:02:25;;;;;;;95.35;46.55;;;;;;;;;;5076030;28;20474;-78
2022/12/01 13:04:53;;;;;;;84.88;44.10;;;;;;;;;;5077232;28;20442;-78
2022/12/01 13:07:28;;;;;;;88.20;44.60;;;;;;;;;;5081435;28;20427;-78
2022/12/01 13:09:58;;;;;;;81.78;44.13;;;;;;;;;;5077326;28;20405;-79
2022/12/01 13:12:27;;;;;;;84.25;45.72;;;;;;;;;;5072472;28;20431;-78
2022/12/01 13:14:56;;;;;;;83.50;44.35;;;;;;;;;;5078691;28;20911;-78
2022/12/01 13:17:26;;;;;;;84.10;45.65;;;;;;;;;;5072567;28;20809;-78
2022/12/01 13:19:53;;;;;;;85.72;44.72;;;;;;;;;;5082732;28;20407;-78
2022/12/01 13:22:23;;;;;;;86.07;45.65;;;;;;;;;;5079455;28;20410;-78
2022/12/01 13:24:51;;;;;;;87.87;47.03;;;;;;;;;;5076868;28;20408;-77
2022/12/01 13:27:20;;;;;;;90.73;46.17;;;;;;;;;;5075362;28;20414;-78
2022/12/01 13:29:47;;;;;;;90.80;47.20;;;;;;;;;;5078424;28;20422;-78
2022/12/01 13:32:26;;;;;;;92.75;46.83;;;;;;;;;;5082258;28;20410;-77
2022/12/01 13:34:53;;;;;;;90.85;46.42;;;;;;;;;;5084221;28;20418;-78
2022/12/01 13:37:25;;;;;;;85.63;46.00;;;;;;;;;;5074309;28;20433;-80
2022/12/01 13:40:06;;;;;;;92.80;48.35;;;;;;;;;;5079323;28;20421;-78
2022/12/01 13:42:33;;;;;;;90.47;45.93;;;;;;;;;;5081092;28;20449;-77
2022/12/01 13:45:00;;;;;;;88.80;48.15;;;;;;;;;;5082080;28;20409;-78
2022/12/01 13:47:32;;;;;;;95.97;48.17;;;;;;;;;;5080332;28;20972;-79
2022/12/01 13:50:18;;;;;;;91.00;48.53;;;;;;;;;;5082822;28;20426;-80
2022/12/01 13:52:48;;;;;;;90.32;48.55;;;;;;;;;;5077033;28;20434;-77
2022/12/01 13:55:27;;;;;;;95.18;51.03;;;;;;;;;;5081051;28;20951;-78
2022/12/01 13:58:13;;;;;;;97.05;47.47;;;;;;;;;;5076725;28;20485;-78
2022/12/01 14:00:41;;;;;;;97.07;49.43;;;;;;;;;;5084577;28;20415;-77
2022/12/01 14:03:26;;;;;;;96.23;50.47;;;;;;;;;;5082044;28;20477;-80
2022/12/01 14:05:55;;;;;;;96.50;49.00;;;;;;;;;;5082381;28;20412;-77
2022/12/01 14:08:25;;;;;;;95.85;49.85;;;;;;;;;;5082075;28;20410;-79
2022/12/01 14:10:54;;;;;;;92.63;49.08;;;;;;;;;;5085272;28;20417;-78
2022/12/01 14:13:21;;;;;;;98.33;51.73;;;;;;;;;;5083795;28;20427;-79
2022/12/01 14:15:53;;;;;;;96.65;52.05;;;;;;;;;;5084141;28;20477;-79
2022/12/01 14:18:24;;;;;;;99.32;51.35;;;;;;;;;;5083266;28;20431;-78
2022/12/01 14:20:51;;;;;;;95.80;51.53;;;;;;;;;;5082150;28;20421;-78
2022/12/01 14:23:23;;;;;;;94.57;50.60;;;;;;;;;;5083866;28;20777;-80